x

8454049 - Quonset Point, Ri (qptr1) Weather Station

2:54 - Tue 22nd Jul 2014 All times are EDT. -4 hours from GMT.

  • Wind
    15mph, 20mph gusts
  • Sea Temp 75°f
  • Air Temp 77°f
  • Sea Pressure 1018.4mb
  • 8454049 - Quonset Point, Ri
  • 8454049 - Quonset Point, Ri

More Historic Weather Station data

Upgrade to MSW Pro to gain access to the past 30 days of data for over 8000 Wavebouys and Weather Stations around the globe.

Join Pro

Comparision Forecast

View Surf forecast
   
mar. 07/22 2:54 15 20 mph 1018.4mb 75f 77f
2:48 17 20 mph 1018.4mb 75f 77f
2:42 16 18 mph 1018.6mb 75f 77f
2:36 16 18 mph 1018.6mb 75f 77f
2:30 17 20 mph 1018.6mb 75f 77f
2:24 18 20 mph 1018.5mb 75f 76f
2:18 16 20 mph 1018.6mb 75f 77f
2:12 17 20 mph 1018.6mb 75f 77f
2:06 16 18 mph 1018.6mb 75f 77f
2:00 15 17 mph 1018.7mb 75f 77f
1:54 16 17 mph 1018.9mb 75f 77f
1:48 15 17 mph 1019mb 75f 78f
1:42 14 16 mph 1019mb 75f 78f
1:36 14 17 mph 1019mb 75f 78f
1:30 15 17 mph 1019mb 75f 78f
1:24 15 17 mph 1019mb 75f 78f
1:18 15 17 mph 1019mb 75f 78f
1:12 14
mph
1019.2mb 75f 78f
1:06 13 14 mph 1019.3mb 75f 78f
1:00 13 14 mph 1019.4mb 74f 78f
12:54 13
mph
1019.5mb 74f 78f
12:48 11 14 mph 1019.5mb 74f 77f
12:42 11 13 mph 1019.6mb 74f 77f
12:36 10 11 mph 1019.6mb 74f 77f
12:30 10 13 mph 1019.6mb 74f 77f
12:24 11 13 mph 1019.6mb 74f 77f
12:18 10 11 mph 1019.7mb 74f 77f
12:12 10 13 mph 1019.7mb 74f 76f
12:06 11 13 mph 1019.7mb 74f 76f
12:00 13 14 mph 1019.7mb 74f 76f
11:54 11 13 mph 1019.8mb 75f 76f
11:48 13 14 mph 1019.8mb 75f 76f
11:42 10 11 mph 1019.9mb 74f 76f
11:36 10
mph
1020mb 74f 76f
11:30 10
mph
1020mb 75f 76f
11:24 10
mph
1020.1mb 75f 76f
11:18 9 11 mph 1020mb 75f 76f
11:12 10 11 mph 1020mb 75f 75f
11:06 10 11 mph 1019.9mb 75f 75f
11:00 10 11 mph 1019.9mb 75f 75f
10:54 10 11 mph 1019.9mb 74f 74f
10:48 10 13 mph 1019.9mb 74f 74f
10:42 10 11 mph 1019.9mb 74f 74f
10:36 10 11 mph 1020mb 74f 74f
10:30 10 11 mph 1020mb 74f 74f
10:24 10 13 mph 1020.1mb 74f 74f
10:18 7 8 mph 1020mb 74f 77f
10:12 7 8 mph 1020.1mb 74f 76f
10:06 8
mph
1020.1mb 74f 76f
10:00 7 8 mph 1020.1mb 73f 77f
9:54 7
mph
1020.1mb 73f 76f
9:48 7 8 mph 1020.1mb 73f 76f
9:42 7 8 mph 1020.2mb 73f 76f
9:36 7 8 mph 1020.2mb 73f 76f
9:30 7
mph
1020.3mb 73f 76f
9:24 6 7 mph 1020.4mb 72f 76f
9:18 6 7 mph 1020.4mb 72f 75f
9:12 6 7 mph 1020.5mb 72f 75f
9:06 7
mph
1020.5mb 72f 75f
9:00 7
mph
1020.6mb 72f 75f
8:54 7
mph
1020.7mb 72f 74f
8:48 7
mph
1020.7mb 72f 74f
8:42 7 8 mph 1020.8mb 72f 73f
8:36 6 7 mph 1020.9mb 72f 73f
8:30 6
mph
1021mb 72f 73f
8:24 5 6 mph 1021.1mb 72f 73f
8:18 6
mph
1021.1mb 72f 73f
8:12 6 7 mph 1021.1mb 72f 72f
8:06 6 7 mph 1021.1mb 72f 72f
8:00 6 7 mph 1021.1mb 72f 71f
7:54 7
mph
1021.1mb 72f 71f
7:48 7 8 mph 1021mb 72f 71f
7:42 7 8 mph 1021mb 72f 70f
7:36 7 8 mph 1021.1mb 72f 70f
7:30 6 7 mph 1021mb 72f 70f
7:24 7 8 mph 1021mb 72f 69f
7:18 6 7 mph 1021mb 72f 69f
7:12 6
mph
1021mb 72f 69f
7:06 6 7 mph 1021mb 72f 69f
7:00 6 7 mph 1021mb 72f 68f
6:54 6 8 mph 1020.9mb 73f 68f
6:48 6 8 mph 1020.9mb 73f 68f
6:42 6 7 mph 1020.9mb 73f 68f
6:36 5 6 mph 1021mb 73f 67f
6:30 5 6 mph 1021mb 73f 67f
6:24 5 6 mph 1021mb 73f 67f
6:18 5 6 mph 1021mb 73f 67f
6:12 5 6 mph 1021mb 73f 67f
6:06 5 6 mph 1021mb 73f 67f
6:00 5 6 mph 1021mb 74f 66f
5:54 5 7 mph 1021.1mb 74f 66f
5:48 6 7 mph 1021.1mb 74f 66f
5:42 6 7 mph 1021mb 74f 66f
5:36 6 8 mph 1021mb 74f 66f
5:30 6 7 mph 1021mb 74f 66f
5:24 7 8 mph 1021mb 74f 66f
5:18 6 7 mph 1021mb 74f 66f
5:12 6 8 mph 1021mb 74f 66f
5:06 6 7 mph 1020.9mb 74f 66f
5:00 6 7 mph 1020.9mb 74f 66f
4:54 6 9 mph 1020.9mb 74f 66f
4:48 7 8 mph 1020.9mb 74f 66f
4:42 7 9 mph 1020.9mb 74f 66f
4:36 7 8 mph 1020.9mb 74f 66f
4:30 8 9 mph 1020.8mb 74f 66f
4:24 8 9 mph 1020.8mb 74f 66f
4:18 8 9 mph 1020.8mb 74f 66f
4:12 8 10 mph 1020.8mb 74f 67f
4:06 8 10 mph 1020.8mb 74f 67f
4:00 8 10 mph 1020.8mb 74f 66f
3:54 8 10 mph 1020.9mb 74f 66f
3:48 8 9 mph 1020.9mb 74f 66f
3:42 7 9 mph 1020.9mb 74f 66f
3:36 8 9 mph 1020.9mb 74f 66f
3:30 9 10 mph 1020.8mb 74f 66f
3:24 7 9 mph 1020.8mb 74f 66f
3:18 8 9 mph 1020.8mb 74f 66f
3:12 8
mph
1020.8mb 74f 66f
3:06 6 7 mph 1020.8mb 74f 67f
3:00 6 7 mph 1020.8mb 74f 66f
2:54 6 7 mph 1020.8mb 74f 66f
2:48 6 7 mph 1020.8mb 74f 66f
2:42 6 7 mph 1020.8mb 74f 66f
2:36 7 8 mph 1020.8mb 74f 66f
2:30 7 8 mph 1020.8mb 74f 67f
2:24 7 9 mph 1020.7mb 74f 67f
2:18 8 9 mph 1020.8mb 74f 67f
2:12 7 8 mph 1020.8mb 74f 67f
2:06 7 8 mph 1020.9mb 74f 67f
2:00 5 6 mph 1020.9mb 74f 67f
1:54 5 8 mph 1020.9mb 74f 67f
1:48 6 8 mph 1020.9mb 74f 67f
1:42 7 8 mph 1020.9mb 74f 67f
1:36 8 10 mph 1021mb 74f 67f
1:30 8 9 mph 1021mb 74f 67f
1:24 6 8 mph 1021.1mb 74f 67f
1:18 7 8 mph 1021.2mb 74f 67f
1:12 8 10 mph 1021.1mb 74f 67f
1:06 9 11 mph 1021.1mb 74f 67f
1:00 8 9 mph 1021.2mb 74f 67f
12:54 8 10 mph 1021.2mb 74f 67f
12:48 8 9 mph 1021.3mb 74f 67f
12:42 7 8 mph 1021.3mb 74f 67f
12:36 8 9 mph 1021.3mb 74f 67f
12:30 7 8 mph 1021.3mb 74f 67f
12:24 7 9 mph 1021.3mb 74f 67f
12:18 8 9 mph 1021.3mb 74f 67f
12:12 6 8 mph 1021.3mb 75f 67f
12:06 6 8 mph 1021.4mb 75f 67f
12:00 6 7 mph 1021.5mb 75f 67f
lun. 07/21 11:54 7 8 mph 1021.5mb 75f 68f
11:48 7 9 mph 1021.5mb 75f 68f
11:42 7 8 mph 1021.5mb 75f 68f
11:36 7 8 mph 1021.6mb 75f 68f
11:30 7 8 mph 1021.6mb 75f 68f
11:24 7 8 mph 1021.5mb 75f 68f
11:18 7
mph
1021.6mb 75f 68f
11:12 6 7 mph 1021.5mb 75f 69f
11:06 7
mph
1021.6mb 75f 69f
11:00 6 8 mph 1021.7mb 75f 69f
10:54 7 8 mph 1021.7mb 75f 69f
10:48 6 7 mph 1021.6mb 75f 69f
10:42 6 7 mph 1021.6mb 75f 69f
10:36 6 7 mph 1021.5mb 75f 69f
10:30 6 7 mph 1021.6mb 75f 69f
10:24 6 8 mph 1021.6mb 75f 69f
10:18 7 9 mph 1021.7mb 75f 69f
10:12 8 9 mph 1021.7mb 75f 69f
10:06 7 8 mph 1021.7mb 75f 69f
10:00 7 9 mph 1021.7mb 75f 69f
9:54 8 9 mph 1021.7mb 75f 70f
9:48 8 9 mph 1021.7mb 75f 70f
9:42 8 9 mph 1021.7mb 75f 70f
9:36 8 9 mph 1021.8mb 75f 70f
9:30 8 10 mph 1021.8mb 75f 70f
9:24 8 9 mph 1021.8mb 75f 70f
9:18 8 10 mph 1021.7mb 75f 70f
9:12 8 9 mph 1021.7mb 75f 70f
9:06 8 9 mph 1021.5mb 75f 70f
9:00 8 9 mph 1021.5mb 74f 70f
8:54 8 9 mph 1021.5mb 74f 71f
8:48 7 8 mph 1021.4mb 74f 71f
8:42 8 9 mph 1021.4mb 74f 71f
8:36 8 9 mph 1021.4mb 73f 71f
8:30 8 10 mph 1021.3mb 73f 71f
8:24 8 10 mph 1021.2mb 73f 71f
8:18 8 10 mph 1021.2mb 73f 71f
8:12 9 11 mph 1021.3mb 73f 71f
8:06 9 11 mph 1021.2mb 73f 71f
8:00 10 11 mph 1021.2mb 73f 71f
7:54 10 13 mph 1021.2mb 73f 72f
7:48 11 13 mph 1021.1mb 73f 72f
7:42 11 13 mph 1021.1mb 72f 72f
7:36 11 13 mph 1021mb 72f 72f
7:30 13 14 mph 1021mb 72f 72f
7:24 10 13 mph 1021.1mb 72f 73f
7:18 9 11 mph 1021mb 72f 73f
7:12 10 13 mph 1021mb 72f 73f
7:06 10 11 mph 1021mb 72f 73f
7:00 9 10 mph 1021mb 72f 74f
6:54 10 11 mph 1021.1mb 72f 74f
6:48 10 11 mph 1021mb 72f 74f
6:42 10 11 mph 1020.9mb 72f 74f
6:36 10 11 mph 1020.9mb 72f 74f
6:30 10 11 mph 1020.9mb 72f 74f
6:24 10
mph
1020.9mb 72f 74f
6:18 9 11 mph 1020.8mb 72f 74f
6:12 10
mph
1020.8mb 72f 75f
6:06 9
mph
1020.7mb 72f 75f
6:00 9
mph
1020.7mb 72f 75f
5:54 8 10 mph 1020.6mb 72f 75f
5:48 8 10 mph 1020.5mb 72f 75f
5:42 9
mph
1020.5mb 72f 75f
5:36 9 10 mph 1020.5mb 73f 75f
5:30 10
mph
1020.4mb 73f 75f
5:24 9 10 mph 1020.4mb 73f 75f
5:18 9 10 mph 1020.5mb 73f 75f
5:12 9 11 mph 1020.5mb 73f 75f
5:06 10 11 mph 1020.5mb 73f 75f
5:00 10 11 mph 1020.5mb 73f 75f
4:54 10 11 mph 1020.5mb 73f 75f
4:48 9 10 mph 1020.5mb 73f 76f
4:42 9
mph
1020.6mb 74f 76f
4:36 5 6 mph 1020.6mb 74f 77f
4:30 5 6 mph 1020.7mb 74f 77f
4:24 3 5 mph 1020.8mb 74f 77f
4:18 3 5 mph 1020.8mb 74f 77f
4:12 5 6 mph 1020.8mb 74f 76f
4:06 6
mph
1020.8mb 74f 76f
4:00 6
mph
1020.9mb 74f 76f
3:54 5
mph
1020.9mb 74f 76f
3:48 3 5 mph 1020.9mb 74f 76f
3:42 3 5 mph 1020.9mb 74f 76f
3:36 5 6 mph 1020.9mb 74f 76f
3:30 5 6 mph 1020.9mb 74f 76f
3:24 5
mph
1021mb 74f 76f
3:18 5
mph
1021mb 74f 76f
3:12 3 6 mph 1021mb 74f 76f
3:06 3 6 mph 1021mb 74f 76f
3:00 3 5 mph 1021.1mb 74f 75f
2:54 3
mph
1021.2mb 74f 75f
2:48 2 3 mph 1021.3mb 74f 75f
2:42 3 5 mph 1021.3mb 74f 75f
2:36 3 5 mph 1021.4mb 73f 75f
2:30 6
mph
1021.4mb 73f 74f
2:24 3 6 mph 1021.4mb 73f 74f
2:18 5 7 mph 1021.4mb 73f 74f
2:12 6 7 mph 1021.4mb 73f 74f
2:06 6 7 mph 1021.4mb 73f 74f
2:00 5 6 mph 1021.5mb 73f 74f
1:54 6 7 mph 1021.5mb 73f 74f
1:48 6
mph
1021.5mb 73f 74f
1:42 5 6 mph 1021.5mb 73f 74f
1:36 6
mph
1021.5mb 73f 74f
1:30 6 8 mph 1021.5mb 73f 74f
1:24 7 9 mph 1021.6mb 73f 73f
1:18 9
mph
1021.6mb 73f 73f
1:12 8
mph
1021.7mb 73f 73f
1:06 7 8 mph 1021.7mb 73f 73f
1:00 6 7 mph 1021.7mb 73f 73f
12:54 6 8 mph 1021.7mb 73f 73f
12:48 8 10 mph 1021.7mb 73f 72f
12:42 9 13 mph 1021.8mb 73f 73f
12:36 9 13 mph 1021.9mb 73f 72f
12:30 8 9 mph 1021.9mb 73f 71f
12:24 8 11 mph 1021.9mb 73f 72f
12:18 9 11 mph 1022mb 73f 71f
12:12 9 13 mph 1022mb 73f 71f
12:06 9 11 mph 1022.1mb 73f 71f
12:00 9 13 mph 1022.1mb 73f 71f
11:54 9 14 mph 1022.2mb 73f 71f
11:48 13 15 mph 1022.2mb 73f 71f
11:42 14 15 mph 1022.2mb 73f 71f
11:36 11 14 mph 1022.2mb 72f 70f
11:30 13 14 mph 1022.2mb 72f 70f
11:24 10 14 mph 1022.2mb 72f 69f
11:18 11 14 mph 1022.2mb 72f 69f
11:12 13 14 mph 1022.2mb 72f 69f
11:06 13 14 mph 1022.2mb 72f 69f
11:00 13 14 mph 1022.2mb 72f 69f
10:54 11 14 mph 1022.2mb 72f 68f
10:48 10 14 mph 1022.2mb 72f 68f
10:42 13 15 mph 1022.2mb 72f 68f
10:36 14 15 mph 1022.2mb 72f 68f
10:30 13 15 mph 1022.3mb 72f 68f
10:24 13 15 mph 1022.2mb 72f 68f
10:18 14 16 mph 1022.2mb 72f 68f
10:12 11 14 mph 1022.2mb 72f 67f
10:06 11 14 mph 1022.2mb 72f 67f
10:00 11 14 mph 1022.2mb 72f 67f
9:54 11 15 mph 1022.2mb 72f 67f
9:48 11 14 mph 1022.2mb 72f 67f
9:42 13 14 mph 1022.2mb 72f 67f
9:36 10 13 mph 1022.3mb 72f 66f
9:30 11 14 mph 1022.3mb 72f 66f
9:24 11 14 mph 1022.4mb 72f 66f
9:18 13 14 mph 1022.4mb 72f 66f
9:12 10 14 mph 1022.5mb 72f 66f
9:06 10 14 mph 1022.5mb 72f 67f
9:00 11 13 mph 1022.5mb 72f 66f
8:54 10 15 mph 1022.4mb 72f 66f
8:48 11 13 mph 1022.3mb 72f 66f
8:42 8 11 mph 1022.3mb 72f 66f
8:36 7 11 mph 1022.2mb 72f 66f
8:30 9 10 mph 1022.3mb 72f 65f
8:24 9 13 mph 1022.3mb 72f 65f
8:18 9 13 mph 1022.2mb 72f 65f
8:12 9 13 mph 1022.1mb 72f 65f
8:06 9 11 mph 1022mb 72f 65f
8:00 10 13 mph 1021.9mb 72f 65f
7:54 10 13 mph 1021.9mb 72f 64f
7:48 9 11 mph 1021.9mb 72f 64f
7:42 9 11 mph 1021.8mb 72f 64f
7:36 8 11 mph 1021.8mb 72f 64f
7:30 8 10 mph 1021.7mb 72f 64f
7:24 7 9 mph 1021.7mb 72f 64f
7:18 7 9 mph 1021.6mb 72f 64f
7:12 7 9 mph 1021.6mb 72f 64f
7:06 8 9 mph 1021.5mb 72f 64f
7:00 7 9 mph 1021.5mb 72f 64f
6:54 7 9 mph 1021.5mb 72f 64f
6:48 7 8 mph 1021.4mb 72f 64f
6:42 7 8 mph 1021.4mb 72f 64f
6:36 7 9 mph 1021.3mb 72f 64f
6:30 8 9 mph 1021.2mb 72f 64f
6:24 7 10 mph 1021.2mb 72f 64f
6:18 8 9 mph 1021.2mb 72f 65f
6:12 7 15 mph 1021.2mb 72f 65f
6:06 13 16 mph 1021.1mb 72f 65f
6:00 11 15 mph 1021mb 72f 65f
5:54 11 14 mph 1021.1mb 72f 65f
5:48 11 14 mph 1021mb 72f 65f
5:42 13 15 mph 1021mb 72f 65f
5:36 13 16 mph 1020.9mb 72f 65f
5:30 14 15 mph 1020.9mb 72f 65f
5:24 13 16 mph 1020.9mb 72f 65f
5:18 14 16 mph 1020.9mb 72f 65f
5:12 13 18 mph 1020.8mb 72f 65f
5:06 14 18 mph 1020.8mb 72f 65f
5:00 14 16 mph 1020.7mb 72f 65f
4:54 13 15 mph 1020.7mb 72f 65f
4:48 11 18 mph 1020.6mb 72f 65f
4:42 15 18 mph 1020.6mb 72f 65f
4:36 15 16 mph 1020.6mb 72f 65f
4:30 14 16 mph 1020.6mb 72f 65f
4:24 10 14 mph 1020.6mb 72f 65f
4:18 11 14 mph 1020.5mb 72f 64f
4:12 13 14 mph 1020.5mb 72f 64f
4:06 13 15 mph 1020.4mb 72f 64f
4:00 11 14 mph 1020.4mb 72f 64f
3:54 11 15 mph 1020.3mb 72f 64f
3:48 13 15 mph 1020.4mb 72f 64f
3:42 10 14 mph 1020.4mb 72f 64f
3:36 11 14 mph 1020.4mb 72f 64f
3:30 10 14 mph 1020.3mb 72f 64f
3:24 11 14 mph 1020.3mb 72f 64f
3:18 11 14 mph 1020.3mb 73f 64f
3:12 10 14 mph 1020.3mb 73f 64f
3:06 9 14 mph 1020.3mb 73f 64f
3:00 11 14 mph 1020.3mb 73f 64f
2:54 13 16 mph 1020.4mb 73f 64f
2:48 13 16 mph 1020.4mb 73f 64f
2:42 13 16 mph 1020.4mb 73f 64f
2:36 14 17 mph 1020.4mb 73f 64f
2:30 15 16 mph 1020.3mb 73f 64f
2:24 14 17 mph 1020.4mb 73f 64f
2:18 14 17 mph 1020.3mb 73f 64f
2:12 14 15 mph 1020.3mb 73f 64f
2:06 14 17 mph 1020.3mb 73f 64f
2:00 15 16 mph 1020.4mb 73f 64f
1:54 14 15 mph 1020.4mb 73f 64f
1:48 13 15 mph 1020.5mb 73f 64f
1:42 13 14 mph 1020.5mb 73f 64f
1:36 11 14 mph 1020.5mb 73f 64f
1:30 13 14 mph 1020.5mb 73f 64f
1:24 13 14 mph 1020.5mb 73f 64f
1:18 13 14 mph 1020.6mb 73f 64f
1:12 11 13 mph 1020.6mb 73f 64f
1:06 11 14 mph 1020.6mb 73f 64f
1:00 11 13 mph 1020.6mb 73f 65f
12:54 11 13 mph 1020.7mb 73f 65f
12:48 9 11 mph 1020.7mb 73f 65f
12:42 10 11 mph 1020.7mb 73f 65f
12:36 10 13 mph 1020.7mb 73f 65f
12:30 10 14 mph 1020.7mb 73f 65f
12:24 9 11 mph 1020.8mb 73f 65f
12:18 9 11 mph 1020.8mb 73f 65f
12:12 9 13 mph 1020.8mb 73f 65f
12:06 10 14 mph 1020.8mb 73f 65f
12:00 10 15 mph 1020.9mb 73f 65f
dim. 07/20 11:54 13 15 mph 1020.9mb 73f 65f
11:48 13 15 mph 1021mb 73f 65f
11:42 11 15 mph 1021.1mb 73f 65f
11:36 11 14 mph 1021.1mb 73f 65f
11:30 11 14 mph 1021.1mb 73f 65f
11:24 13 14 mph 1021.1mb 73f 64f
11:18 13 15 mph 1021.1mb 73f 65f
11:12 14 16 mph 1021.1mb 73f 64f
11:06 13 16 mph 1021.1mb 73f 64f
11:00 13 15 mph 1021.2mb 73f 64f
10:54 13 15 mph 1021.2mb 73f 64f
10:48 13 16 mph 1021.2mb 73f 64f
10:42 14 16 mph 1021.2mb 73f 64f
10:36 13 16 mph 1021.2mb 73f 64f
10:30 13 15 mph 1021.3mb 73f 64f
10:24 14 16 mph 1021.2mb 73f 64f
10:18 15 16 mph 1021.2mb 73f 64f
10:12 15 16 mph 1021.2mb 73f 64f
10:06 15 17 mph 1021.2mb 73f 65f
10:00 16 17 mph 1021.1mb 73f 65f
9:54 14 16 mph 1021.1mb 73f 66f
9:48 14 15 mph 1021.1mb 73f 66f
9:42 13 16 mph 1021.1mb 73f 66f
9:36 15 18 mph 1021mb 73f 66f
9:30 16 18 mph 1020.9mb 73f 67f
9:24 16 18 mph 1020.9mb 73f 66f
9:18 16 18 mph 1020.9mb 73f 66f
9:12 16 17 mph 1020.9mb 73f 67f
9:06 15 17 mph 1020.9mb 73f 66f
9:00 14 16 mph 1020.8mb 73f 66f
8:54 14 16 mph 1020.8mb 73f 66f
8:48 15 16 mph 1020.8mb 73f 67f
8:42 14 15 mph 1020.7mb 73f 67f
8:36 15 16 mph 1020.7mb 73f 67f
8:30 14 17 mph 1020.7mb 73f 67f
8:24 14 17 mph 1020.6mb 73f 67f
8:18 15 17 mph 1020.5mb 73f 68f
8:12 14 15 mph 1020.5mb 73f 70f
8:06 14 16 mph 1020.4mb 73f 70f
8:00 14 15 mph 1020.3mb 73f 70f
7:54 14 15 mph 1020.3mb 73f 70f
7:48 14 17 mph 1020.3mb 73f 70f
7:42 15 17 mph 1020.3mb 73f 70f
7:36 14 15 mph 1020.3mb 72f 70f
7:30 15 16 mph 1020.3mb 72f 70f
7:24 14 16 mph 1020.2mb 72f 71f
7:18 15 16 mph 1020.1mb 72f 71f
7:12 14 17 mph 1020.1mb 72f 71f
7:06 16 17 mph 1020.1mb 72f 71f
7:00 15 17 mph 1020mb 72f 71f
6:54 16
mph
1020mb 72f 71f
6:48 14 16 mph 1020mb 72f 71f
6:42 14 15 mph 1019.9mb 73f 71f
6:36 14 16 mph 1019.9mb 72f 72f
6:30 14 16 mph 1019.9mb 72f 72f
6:24 15 17 mph 1019.9mb 72f 72f
6:18 14 17 mph 1019.9mb 72f 72f
6:12 14 16 mph 1019.9mb 72f 72f
6:06 15 17 mph 1019.9mb 71f 72f
6:00 15 17 mph 1019.9mb 71f 72f
5:54 15 17 mph 1019.9mb 71f 72f
5:48 16 17 mph 1019.8mb 71f 72f
5:42 14 16 mph 1019.8mb 72f 73f
5:36 14 16 mph 1019.8mb 72f 73f
5:30 14 15 mph 1019.8mb 72f 73f
5:24 15 16 mph 1019.8mb 72f 73f
5:18 14 16 mph 1019.8mb 72f 73f
5:12 14 15 mph 1019.8mb 72f 73f
5:06 11 14 mph 1020mb 73f 73f
5:00 13 14 mph 1020mb 73f 73f
4:54 11 14 mph 1020mb 73f 73f
4:48 13 14 mph 1020mb 73f 73f
4:42 11 14 mph 1020mb 73f 73f
4:36 13 14 mph 1019.9mb 73f 73f
4:30 13 14 mph 1019.9mb 73f 73f
4:24 11 14 mph 1020mb 73f 73f
4:18 13 14 mph 1020.1mb 73f 73f
4:12 10 14 mph 1020.2mb 73f 73f
4:06 11 13 mph 1020.2mb 73f 73f
4:00 11 14 mph 1020.2mb 73f 73f
3:54 11 13 mph 1020.3mb 73f 73f
3:48 11 13 mph 1020.3mb 73f 73f
3:42 9 11 mph 1020.3mb 73f 73f
3:36 10 11 mph 1020.4mb 73f 73f
3:30 8 9 mph 1020.4mb 73f 73f
3:24 8 9 mph 1020.5mb 73f 73f
3:18 7 9 mph 1020.5mb 73f 73f
3:12 8 9 mph 1020.6mb 73f 73f
3:06 8 10 mph 1020.6mb 73f 73f
3:00 9 11 mph 1020.6mb 73f 73f
2:54 9 10 mph 1020.6mb 73f 73f
2:48 8
mph
1020.7mb 73f 73f
2:42 7 9 mph 1020.7mb 73f 73f
2:36 8 10 mph 1020.8mb 73f 73f
2:30 9 10 mph 1020.7mb 73f 73f
2:24 7 9 mph 1020.8mb 73f 73f
2:18 8 9 mph 1020.8mb 73f 73f
2:12 8 10 mph 1020.8mb 73f 73f
2:06 9 10 mph 1020.8mb 73f 73f
2:00 8 11 mph 1020.9mb 73f 73f
1:54 8 11 mph 1020.9mb 73f 73f
1:48 9 10 mph 1020.9mb 73f 73f
1:42 9 11 mph 1020.9mb 73f 73f
1:36 9 10 mph 1021mb 73f 73f
1:30 8 10 mph 1021.1mb 73f 73f
1:24 8 10 mph 1021.1mb 73f 73f
1:18 9 10 mph 1021.1mb 73f 72f
1:12 8 10 mph 1021.1mb 73f 72f
1:06 8 9 mph 1021.2mb 73f 72f
1:00 7 9 mph 1021.1mb 73f 72f
12:54 8 9 mph 1021.2mb 73f 72f
12:48 8 9 mph 1021.3mb 73f 72f
12:42 8 9 mph 1021.4mb 73f 72f
12:36 7 9 mph 1021.4mb 73f 71f
12:30 8 9 mph 1021.5mb 73f 71f
12:24 8 9 mph 1021.6mb 73f 71f
12:18 8 9 mph 1021.6mb 73f 71f
12:12 6 7 mph 1021.7mb 73f 71f
12:06 7 8 mph 1021.7mb 73f 71f
12:00 8 9 mph 1021.7mb 73f 71f
11:54 8 9 mph 1021.8mb 73f 71f
11:48 7 9 mph 1021.8mb 73f 71f
11:42 6 9 mph 1021.9mb 73f 71f
11:36 7 8 mph 1022mb 73f 70f
11:30 8 10 mph 1021.9mb 73f 70f
11:24 8 10 mph 1022mb 73f 70f
11:18 7 9 mph 1021.9mb 73f 70f
11:12 9 10 mph 1022mb 73f 70f
11:06 8 11 mph 1021.9mb 73f 70f
11:00 8 11 mph 1022mb 73f 70f
10:54 8 10 mph 1022.1mb 73f 70f
10:48 9 10 mph 1022.1mb 73f 69f
10:42 8 10 mph 1022.2mb 73f 69f
10:36 8 10 mph 1022.2mb 73f 69f
10:30 8 10 mph 1022.3mb 73f 69f
10:24 9 11 mph 1022.3mb 73f 69f
10:18 9 11 mph 1022.3mb 73f 69f
10:12 8 10 mph 1022.4mb 73f 69f
10:06 8 9 mph 1022.5mb 73f 69f
10:00 7 9 mph 1022.5mb 73f 69f
9:54 8 9 mph 1022.5mb 72f 69f
9:48 7 9 mph 1022.5mb 72f 68f
9:42 8 9 mph 1022.5mb 72f 68f
9:36 8 9 mph 1022.6mb 72f 68f
9:30 7 9 mph 1022.6mb 72f 68f
9:24 8 10 mph 1022.6mb 72f 67f
9:18 8 10 mph 1022.5mb 72f 67f
9:12 8 11 mph 1022.5mb 72f 67f
9:06 9 11 mph 1022.4mb 72f 67f
9:00 9 11 mph 1022.4mb 72f 67f
8:54 10 13 mph 1022.3mb 72f 67f
8:48 10 13 mph 1022.3mb 72f 67f
8:42 10 13 mph 1022.4mb 72f 67f
8:36 11 14 mph 1022.3mb 72f 67f
8:30 10 14 mph 1022.3mb 72f 67f
8:24 10 13 mph 1022.2mb 72f 67f
8:18 11 14 mph 1022.2mb 72f 67f
8:12 11 14 mph 1022.1mb 72f 67f
8:06 13 14 mph 1021.9mb 72f 67f
8:00 13 14 mph 1022mb 72f 67f
7:54 11 14 mph 1022mb 72f 67f
7:48 13 14 mph 1021.8mb 72f 67f
7:42 13 14 mph 1021.8mb 72f 67f
7:36 13 14 mph 1021.8mb 72f 67f
7:30 11 14 mph 1021.8mb 72f 66f
7:24 11 14 mph 1021.8mb 72f 66f
7:18 10 13 mph 1021.8mb 72f 67f
7:12 10 13 mph 1021.9mb 72f 66f
7:06 9 11 mph 1021.9mb 72f 67f
7:00 9 11 mph 1021.8mb 72f 67f
6:54 10 11 mph 1021.6mb 72f 67f
6:48 10 11 mph 1021.6mb 72f 67f
6:42 9 10 mph 1021.5mb 72f 67f
6:36 7 8 mph 1021.5mb 72f 66f
6:30 6 7 mph 1021.5mb 72f 67f
6:24 6 11 mph 1021.5mb 72f 67f
6:18 9 13 mph 1021.5mb 72f 68f
6:12 8 10 mph 1021.4mb 72f 68f
6:06 9 13 mph 1021.4mb 72f 68f
6:00 10 11 mph 1021.3mb 72f 68f
5:54 11 14 mph 1021.2mb 72f 68f
5:48 10 11 mph 1021mb 72f 68f
5:42 10 13 mph 1021mb 73f 68f
5:36 10 11 mph 1021mb 73f 68f
5:30 9 11 mph 1021mb 73f 68f
5:24 9 11 mph 1021mb 73f 68f
5:18 9 13 mph 1021mb 73f 68f
5:12 9 11 mph 1021mb 73f 68f
5:06 8 11 mph 1021mb 73f 68f
5:00 10 11 mph 1021mb 73f 68f
4:54 9 13 mph 1021mb 73f 69f
4:48 9 11 mph 1021mb 73f 69f
4:42 10 11 mph 1021mb 73f 69f
4:36 9 11 mph 1021mb 73f 69f
4:30 7 11 mph 1021mb 73f 69f
4:24 9 11 mph 1021.1mb 73f 68f
4:18 7 9 mph 1021.2mb 73f 69f
4:12 9 10 mph 1021.2mb 73f 69f
4:06 8 10 mph 1021.1mb 73f 69f
4:00 9 11 mph 1021.1mb 73f 69f
3:54 10 11 mph 1021.1mb 73f 69f
3:48 9 10 mph 1021.1mb 73f 69f
3:42 9 13 mph 1021.1mb 73f 69f
3:36 11 13 mph 1021.1mb 73f 69f
3:30 9 11 mph 1021.1mb 73f 69f
3:24 10 11 mph 1021.2mb 73f 69f
3:18 10 11 mph 1021.1mb 73f 69f
3:12 11 13 mph 1021.2mb 73f 69f
3:06 10 11 mph 1021.2mb 73f 69f
3:00 10 11 mph 1021.3mb 73f 69f
2:54 9 10 mph 1021.4mb 73f 69f
2:48 9 11 mph 1021.5mb 73f 69f
2:42 8 9 mph 1021.6mb 73f 69f
2:36 7 8 mph 1021.8mb 73f 69f
2:30 7 8 mph 1021.8mb 73f 69f
2:24 7 8 mph 1021.9mb 73f 69f
2:18 7 9 mph 1022mb 73f 69f
2:12 8 10 mph 1022mb 73f 69f
2:06 8 9 mph 1022mb 73f 69f
2:00 7 8 mph 1022.1mb 73f 69f
1:54 6 7 mph 1022.1mb 73f 69f
1:48 5
mph
1022.2mb 73f 69f
1:42 5 8 mph 1022.3mb 73f 69f
1:36 8 9 mph 1022.3mb 73f 69f
1:30 8 11 mph 1022.3mb 73f 69f
1:24 9 10 mph 1022.4mb 73f 69f
1:18 9 11 mph 1022.3mb 73f 69f
1:12 9 11 mph 1022.4mb 73f 69f
1:06 9 10 mph 1022.6mb 73f 69f
1:00 8 9 mph 1022.7mb 73f 69f
12:54 7 9 mph 1022.8mb 73f 69f
12:48 8 10 mph 1022.8mb 73f 69f
12:42 8 9 mph 1022.7mb 73f 69f
12:36 8 9 mph 1022.8mb 73f 69f
12:30 7 9 mph 1022.8mb 73f 70f
12:24 7 8 mph 1022.8mb 73f 70f
12:18 7 8 mph 1023mb 73f 70f
12:12 6 7 mph 1023.1mb 73f 70f
12:06 5 6 mph 1023.1mb 73f 70f
12:00 5 7 mph 1023.2mb 73f 70f
sam. 07/19 11:54 6 7 mph 1023.2mb 73f 70f
11:48 5 7 mph 1023.2mb 73f 70f
11:42 6 7 mph 1023.2mb 73f 70f
11:36 6 8 mph 1023.2mb 73f 70f
11:30 6 7 mph 1023.2mb 73f 70f
11:24 6 7 mph 1023.2mb 73f 71f
11:18 6 7 mph 1023.1mb 73f 70f
11:12 7 8 mph 1023mb 73f 70f
11:06 7 8 mph 1023mb 73f 71f
11:00 7 8 mph 1023mb 73f 70f
10:54 7 8 mph 1023mb 73f 70f
10:48 7 8 mph 1023mb 73f 70f
10:42 7 8 mph 1023mb 73f 71f
10:36 7 8 mph 1023mb 73f 71f
10:30 7 8 mph 1022.9mb 73f 71f
10:24 7 8 mph 1022.9mb 73f 71f
10:18 1 2 mph 1023mb 73f 70f
10:12 1 2 mph 1023mb 73f 69f
10:06 2 3 mph 1023mb 73f 69f
10:00 2 3 mph 1023.1mb 73f 69f
9:54 2 3 mph 1023.1mb 73f 69f
9:48 3
mph
1023.1mb 73f 69f
9:42 3
mph
1023.2mb 73f 69f
9:36 3
mph
1023.2mb 73f 69f
9:30 3 5 mph 1023.1mb 73f 69f
9:24 3 5 mph 1023.1mb 73f 69f
9:18 5
mph
1023.2mb 73f 69f
9:12 2 3 mph 1023.1mb 73f 70f
9:06 3 5 mph 1023.1mb 73f 70f
9:00 1 2 mph 1023.1mb 73f 70f
8:54  -  1 mph 1023.2mb 73f 70f
8:48  -  1 mph 1023.2mb 73f 70f
8:42  -  2 mph 1023.2mb 73f 70f
8:36 2 3 mph 1023.1mb 73f 70f
8:30 2 3 mph 1023.1mb 73f 70f
8:24 2 3 mph 1023.1mb 73f 70f
8:18 2 6 mph 1023.2mb 73f 70f
8:12 3 5 mph 1023.2mb 73f 70f
8:06 5 6 mph 1023.3mb 73f 70f
8:00 3 6 mph 1023.2mb 73f 70f
7:54 6 7 mph 1023mb 73f 70f
7:48 6 7 mph 1022.9mb 73f 70f
7:42 6 8 mph 1023mb 73f 70f
7:36 6 8 mph 1023mb 73f 70f
7:30 8 9 mph 1023.1mb 73f 70f
7:24 7 8 mph 1023.2mb 73f 70f
7:18 7 8 mph 1023.2mb 73f 70f
7:12 7 8 mph 1023.4mb 73f 70f
7:06 6 8 mph 1023.5mb 73f 70f
7:00 6
mph
1023.6mb 73f 70f
6:54 5 7 mph 1023.6mb 73f 70f
6:48 5 7 mph 1023.6mb 73f 70f
6:42 6 7 mph 1023.5mb 73f 70f
6:36 6 9 mph 1023.4mb 73f 70f
6:30 7
mph
1023.4mb 72f 71f
6:24 6 8 mph 1023.4mb 72f 71f
6:18 7 11 mph 1023.4mb 72f 70f
6:12 10 13 mph 1023.6mb 71f 70f
6:06 11 13 mph 1023.7mb 71f 71f
6:00 9
mph
1023.8mb 71f 71f
5:54 7 10 mph 1023.6mb 71f 71f
5:48 9 10 mph 1023.7mb 71f 71f
5:42 9 10 mph 1023.8mb 71f 71f
5:36 9 10 mph 1023.9mb 71f 71f
5:30 8 9 mph 1023.8mb 72f 71f
5:24 8 9 mph 1023.8mb 72f 71f
5:18 8 11 mph 1023.8mb 72f 71f
5:12 11
mph
1023.8mb 72f 71f
5:06 10 11 mph 1023.9mb 72f 71f
5:00 8 10 mph 1023.9mb 72f 72f
4:54 9 11 mph 1023.7mb 72f 72f
4:48 9 11 mph 1023.9mb 72f 72f
4:42 10 13 mph 1024mb 72f 72f
4:36 9 10 mph 1023.9mb 72f 73f
4:30 7 9 mph 1023.7mb 72f 73f
4:24 7 8 mph 1023.6mb 73f 72f
4:18 7 9 mph 1023.6mb 73f 72f
4:12 9 10 mph 1023.6mb 73f 72f
4:06 9 10 mph 1023.6mb 73f 72f
4:00 8 11 mph 1023.7mb 73f 72f
3:54 8 10 mph 1023.7mb 73f 72f
3:48 9 11 mph 1023.5mb 73f 72f
3:42 11 13 mph 1023.5mb 73f 72f
3:36 10 13 mph 1023.7mb 73f 72f
3:30 13 14 mph 1024mb 73f 73f
3:24 9
mph
1024mb 74f 73f
3:18 9 10 mph 1024mb 74f 74f
3:12 10 13 mph 1023.9mb 74f 73f
3:06 11
mph
1023.8mb 74f 73f
3:00 9 11 mph 1023.7mb 74f 73f
2:54 9 13 mph 1023.5mb 74f 72f
2:48 11 13 mph 1023.4mb 74f 72f
2:42 10 11 mph 1023.5mb 74f 73f
2:36 9 10 mph 1023.4mb 74f 73f
2:30 9 10 mph 1023.6mb 74f 73f
2:24 8 10 mph 1023.8mb 74f 73f
2:18 8 9 mph 1023.8mb 74f 73f
2:12 9 10 mph 1023.8mb 74f 73f
2:06 8 10 mph 1023.8mb 74f 73f
2:00 8 10 mph 1023.8mb 74f 73f
1:54 7 10 mph 1023.8mb 74f 72f
1:48 9 11 mph 1023.9mb 74f 72f
1:42 8 10 mph 1023.9mb 74f 72f
1:36 10 11 mph 1023.8mb 74f 72f
1:30 8 11 mph 1024.1mb 74f 71f
1:24 11 16 mph 1024.3mb 74f 72f
1:18 15 17 mph 1024.5mb 74f 72f
1:12 16 20 mph 1024.5mb 74f 72f
1:06 20 21 mph 1024.5mb 74f 72f
1:00 14 15 mph 1024.6mb 74f 72f
12:54 14 16 mph 1024.7mb 73f 73f
12:48 10 11 mph 1024.7mb 73f 74f
12:42 10 11 mph 1024.7mb 73f 74f
12:36 11
mph
1024.7mb 73f 74f
12:30 9 11 mph 1024.7mb 73f 74f
12:24 8 9 mph 1024.7mb 73f 74f
12:18 6 8 mph 1024.7mb 73f 75f
12:12 6
mph
1024.8mb 73f 75f
12:06 6 9 mph 1024.7mb 73f 74f
12:00 7 9 mph 1024.6mb 73f 74f
11:54 3 5 mph 1024.7mb 73f 74f
11:48 3 5 mph 1024.6mb 73f 74f
11:42 5 7 mph 1024.5mb 73f 73f
11:36 6 7 mph 1024.4mb 73f 73f
11:30 7
mph
1024.3mb 72f 72f
11:24 6 7 mph 1024.3mb 72f 72f
11:18 6 7 mph 1024.4mb 72f 72f
11:12 5
mph
1024.5mb 72f 72f
11:06 3 5 mph 1024.6mb 72f 72f
11:00 3 5 mph 1024.7mb 72f 72f
10:54 3 5 mph 1024.6mb 72f 72f
10:48 5 6 mph 1024.6mb 72f 72f
10:42 5 6 mph 1024.6mb 72f 72f
10:36 5 6 mph 1024.6mb 72f 72f
10:30 5 6 mph 1024.6mb 72f 73f
10:24 6
mph
1024.6mb 72f 72f
10:18 5 6 mph 1024.6mb 72f 72f
10:12 5 6 mph 1024.7mb 72f 71f
10:06 6 7 mph 1024.7mb 72f 71f
10:00 6 7 mph 1024.7mb 72f 71f
9:54 5 6 mph 1024.8mb 72f 71f
9:48 3 5 mph 1024.8mb 72f 70f
9:42 3 5 mph 1024.8mb 72f 70f
9:36 2 3 mph 1024.9mb 72f 70f
9:30 2 3 mph 1024.9mb 72f 70f
9:24 3 5 mph 1024.8mb 72f 70f
9:18 2 3 mph 1024.7mb 72f 69f
9:12 3 5 mph 1024.7mb 72f 69f
9:06 3 5 mph 1024.6mb 72f 69f
9:00 3
mph
1024.6mb 72f 69f
8:54 2 3 mph 1024.6mb 72f 69f
8:48 1
mph
1024.7mb 72f 71f
8:42 1 2 mph 1024.7mb 72f 71f
8:36  -  1 mph 1024.7mb 72f 71f
8:30  -  1 mph 1024.8mb 72f 72f
8:24  -  1 mph 1024.8mb 72f 71f
8:18  -  1 mph 1024.8mb 72f 70f
8:12 1
mph
1024.7mb 72f 69f
8:06  -  1 mph 1024.6mb 72f 69f
8:00  -  1 mph 1024.5mb 72f 69f
7:54  -  1 mph 1024.4mb 72f 68f
7:48  -  2 mph 1024.4mb 72f 68f
7:42  -  2 mph 1024.4mb 72f 69f
7:36  -  1 mph 1024.5mb 72f 68f
7:30  -  2 mph 1024.4mb 72f 67f
7:24 2 3 mph 1024.5mb 72f 67f
7:18 2 3 mph 1024.3mb 72f 66f
7:12 2 5 mph 1024.2mb 72f 66f
7:06 5
mph
1024.1mb 72f 66f
7:00 3 5 mph 1024.2mb 72f 65f
6:54 5 6 mph 1024.1mb 72f 65f
6:48 3
mph
1024.2mb 72f 65f
6:42 3 5 mph 1024.2mb 72f 65f
6:36 3 5 mph 1024.2mb 71f 65f
6:30 2 3 mph 1024.1mb 71f 65f
6:24 3
mph
1024mb 71f 64f
6:18 2 5 mph 1024mb 71f 64f
6:12 3 5 mph 1024mb 71f 65f
6:06 2 6 mph 1024mb 71f 64f
6:00 3 5 mph 1024mb 71f 65f
5:54 3 5 mph 1024mb 71f 65f
5:48 1 3 mph 1024.1mb 71f 65f
5:42 2
mph
1024.1mb 71f 64f
5:36 2 5 mph 1024.1mb 71f 64f
5:30 5 6 mph 1024.1mb 72f 64f
5:24 5
mph
1024.1mb 72f 64f
5:18 3
mph
1024.1mb 72f 64f
5:12 3
mph
1024.1mb 72f 64f
5:06 2 3 mph 1024.1mb 72f 65f
5:00 3 5 mph 1024mb 72f 65f
4:54 3
mph
1024mb 72f 65f
4:48 2 3 mph 1023.9mb 72f 65f
4:42 2
mph
1024mb 72f 65f
4:36 2 3 mph 1024mb 72f 65f
4:30 2
mph
1023.9mb 72f 66f
4:24 1 2 mph 1023.9mb 73f 66f
4:18 1 2 mph 1024mb 73f 66f
4:12 1 3 mph 1024mb 73f 65f
4:06 3
mph
1023.9mb 73f 65f
4:00 2
mph
1023.9mb 73f 65f
3:54 2 3 mph 1023.8mb 73f 65f
3:48 1 3 mph 1023.8mb 73f 65f
3:42 2 3 mph 1023.9mb 73f 65f
3:36 2 5 mph 1023.5mb 73f 64f
3:30 5
mph
1023.8mb 73f 64f
3:24 2 5 mph 1023.6mb 73f 64f
3:18 5
mph
1023.7mb 73f 64f
3:12 3 5 mph 1023.8mb 73f 65f
3:06 5
mph
1023.7mb 73f 65f
3:00 5 6 mph 1023.6mb 73f 66f
2:54 5
mph
1023.5mb 73f 66f
2:48 2 3 mph 1023.5mb 73f 66f
2:42 2
mph
1023.5mb 73f 65f
2:36 3 5 mph 1023.6mb 73f 65f
2:30 3
mph
1023.6mb 73f 66f
2:24 3 5 mph 1023.6mb 73f 66f
2:18 3
mph
1023.5mb 73f 66f
2:12 3 5 mph 1023.6mb 73f 66f
2:06 2 3 mph 1023.6mb 73f 66f
2:00 3 6 mph 1023.6mb 74f 66f
1:54 5 6 mph 1023.7mb 74f 66f
1:48 6
mph
1023.8mb 74f 66f
1:42 5 6 mph 1023.8mb 74f 66f
1:36 6 8 mph 1023.8mb 74f 66f
1:30 6 7 mph 1023.8mb 74f 66f
1:24 5 6 mph 1023.8mb 74f 67f
1:18 3 6 mph 1023.7mb 74f 67f
1:12 3 5 mph 1023.7mb 74f 67f
1:06 3 5 mph 1023.6mb 74f 68f
1:00 3 5 mph 1023.7mb 74f 68f
12:54 3 5 mph 1023.7mb 74f 68f
12:48 3
mph
1023.7mb 74f 68f
12:42 3 5 mph 1023.7mb 74f 68f
12:36 3
mph
1023.7mb 74f 68f
12:30 3 5 mph 1023.8mb 74f 67f
12:24 3 5 mph 1023.8mb 74f 68f
12:18 5 6 mph 1023.8mb 74f 68f
12:12 5 6 mph 1023.8mb 74f 68f
12:06 5 6 mph 1023.8mb 74f 68f
12:00 6 7 mph 1023.8mb 74f 69f
ven. 07/18 11:54 5 6 mph 1023.8mb 74f 69f
11:48 5
mph
1023.8mb 74f 69f
11:42 3 6 mph 1023.8mb 74f 69f
11:36 5 7 mph 1023.8mb 74f 69f
11:30 6 7 mph 1023.8mb 74f 69f
11:24 6 8 mph 1023.8mb 74f 69f
11:18 7 8 mph 1023.7mb 74f 69f
11:12 7 9 mph 1023.7mb 74f 70f
11:06 7 9 mph 1023.7mb 74f 70f
11:00 8 10 mph 1023.8mb 74f 70f
10:54 9 10 mph 1023.7mb 74f 70f
10:48 8 9 mph 1023.6mb 74f 70f
10:42 8 10 mph 1023.7mb 74f 70f
10:36 8 9 mph 1023.7mb 74f 70f
10:30 8 9 mph 1023.7mb 74f 70f
10:24 8 10 mph 1023.7mb 74f 70f
10:18 9
mph
1023.8mb 74f 70f
10:12 8 10 mph 1023.8mb 74f 70f
10:06 9 10 mph 1023.8mb 74f 70f
10:00 8 9 mph 1023.8mb 74f 70f
9:54 7 9 mph 1023.8mb 74f 70f
9:48 8 10 mph 1023.8mb 74f 70f
9:42 9
mph
1023.7mb 74f 71f
9:36 8 9 mph 1023.7mb 74f 70f
9:30 9
mph
1023.7mb 74f 70f
9:24 9 10 mph 1023.7mb 74f 70f
9:18 8 10 mph 1023.6mb 74f 71f
9:12 9 10 mph 1023.5mb 74f 70f
9:06 9 11 mph 1023.4mb 74f 71f
9:00 9 10 mph 1023.4mb 74f 71f
8:54 7 11 mph 1023.3mb 74f 70f
8:48 9 11 mph 1023.2mb 75f 70f
8:42 8 10 mph 1023.1mb 75f 71f
8:36 7
mph
1023.1mb 75f 72f
8:30 6 7 mph 1023mb 75f 72f
8:24 7 9 mph 1023mb 75f 72f
8:18 7 8 mph 1023mb 75f 73f
8:12 7 10 mph 1023mb 75f 73f
8:06 7 8 mph 1022.9mb 75f 73f
8:00 6 8 mph 1022.8mb 75f 73f
7:54 6 9 mph 1022.8mb 75f 73f